createdAt,value
2023-04-24T00:01:10.024Z,7.95
2023-04-24T00:03:38.150Z,7.28
2023-04-24T00:06:06.335Z,6.95
2023-04-24T00:08:33.994Z,8.32
2023-04-24T00:11:01.006Z,8.57
2023-04-24T00:13:29.409Z,7.57
2023-04-24T00:15:56.958Z,8.00
2023-04-24T00:18:23.624Z,6.75
2023-04-24T00:20:50.312Z,6.55
2023-04-24T00:23:16.939Z,9.07
2023-04-24T00:25:43.713Z,5.97
2023-04-24T00:28:10.370Z,5.88
2023-04-24T00:30:37.339Z,6.38
2023-04-24T00:33:04.227Z,5.97
2023-04-24T00:35:31.083Z,5.45
2023-04-24T00:37:57.764Z,5.53
2023-04-24T00:40:24.447Z,5.65
2023-04-24T00:42:51.211Z,6.45
2023-04-24T00:45:18.294Z,5.78
2023-04-24T00:47:46.421Z,5.90
2023-04-24T00:50:15.458Z,5.85
2023-04-24T00:52:42.253Z,5.95
2023-04-24T00:55:09.645Z,5.40
2023-04-24T00:57:36.716Z,6.13
2023-04-24T01:00:04.704Z,7.40
2023-04-24T01:02:31.518Z,5.35
2023-04-24T01:04:58.517Z,5.93
2023-04-24T01:07:26.209Z,6.22
2023-04-24T01:09:53.213Z,6.20
2023-04-24T01:12:20.832Z,5.47
2023-04-24T01:14:47.512Z,6.55
2023-04-24T01:17:14.236Z,6.88
2023-04-24T01:19:41.537Z,5.20
2023-04-24T01:22:17.329Z,5.18
2023-04-24T01:24:44.307Z,5.60
2023-04-24T01:27:11.731Z,5.22
2023-04-24T01:29:38.602Z,4.90
2023-04-24T01:32:06.252Z,5.07
2023-04-24T01:34:33.538Z,5.03
2023-04-24T01:37:00.483Z,4.53
2023-04-24T01:39:29.570Z,4.60
2023-04-24T01:41:57.266Z,4.35
2023-04-24T01:44:24.740Z,4.90
2023-04-24T01:46:51.707Z,4.50
2023-04-24T01:49:18.687Z,4.85
2023-04-24T01:51:45.988Z,6.43
2023-04-24T01:54:12.878Z,4.47
2023-04-24T01:56:43.581Z,4.90
2023-04-24T01:59:13.739Z,4.63
2023-04-24T02:01:40.763Z,6.85
2023-04-24T02:04:08.940Z,4.32
2023-04-24T02:06:36.280Z,4.97
2023-04-24T02:09:04.248Z,4.07
2023-04-24T02:11:31.268Z,5.15
2023-04-24T02:13:59.129Z,4.60
2023-04-24T02:16:26.041Z,4.85
2023-04-24T02:18:52.971Z,4.55
2023-04-24T02:21:19.622Z,4.45
2023-04-24T02:23:46.328Z,4.15
2023-04-24T02:26:13.121Z,3.67
2023-04-24T02:28:39.831Z,5.25
2023-04-24T02:31:07.344Z,3.58
2023-04-24T02:33:34.244Z,3.67
2023-04-24T02:36:01.034Z,4.15
2023-04-24T02:38:27.872Z,3.97
2023-04-24T02:40:54.695Z,3.63
2023-04-24T02:43:21.620Z,4.22
2023-04-24T02:45:48.556Z,3.33
2023-04-24T02:48:15.450Z,3.35
2023-04-24T02:50:42.123Z,3.80
2023-04-24T02:53:08.760Z,3.80
2023-04-24T02:55:35.545Z,4.28
2023-04-24T02:58:02.209Z,3.90
2023-04-24T03:00:37.220Z,3.60
2023-04-24T03:03:04.149Z,6.53
2023-04-24T03:05:32.059Z,4.68
2023-04-24T03:07:58.944Z,3.90
2023-04-24T03:10:25.878Z,4.40
2023-04-24T03:12:52.561Z,4.10
2023-04-24T03:15:19.497Z,4.95
2023-04-24T03:17:46.330Z,4.35
2023-04-24T03:20:13.308Z,4.40
2023-04-24T03:22:40.190Z,4.40
2023-04-24T03:25:07.280Z,5.28
2023-04-24T03:27:33.966Z,4.50
2023-04-24T03:30:09.706Z,4.90
2023-04-24T03:32:36.380Z,5.68
2023-04-24T03:35:03.403Z,4.57
2023-04-24T03:37:31.085Z,5.93
2023-04-24T03:39:57.710Z,7.15
2023-04-24T03:42:24.422Z,4.10
2023-04-24T03:44:51.218Z,4.40
2023-04-24T03:47:17.908Z,3.50
2023-04-24T03:49:44.756Z,3.58
2023-04-24T03:52:11.616Z,2.35
2023-04-24T03:54:38.351Z,2.40
2023-04-24T03:57:05.815Z,2.00
2023-04-24T03:59:32.516Z,2.00
2023-04-24T04:01:59.248Z,2.08
2023-04-24T04:04:26.418Z,2.03
2023-04-24T04:06:53.248Z,2.08
2023-04-24T04:09:20.154Z,2.15
2023-04-24T04:11:46.842Z,2.33
2023-04-24T04:14:13.450Z,2.35
2023-04-24T04:16:42.558Z,2.55
2023-04-24T04:19:09.518Z,1.77
2023-04-24T04:21:36.307Z,1.83
2023-04-24T04:24:03.086Z,2.92
2023-04-24T04:26:32.946Z,2.35
2023-04-24T04:29:01.705Z,2.70
2023-04-24T04:31:28.453Z,2.30
2023-04-24T04:33:55.158Z,2.58
2023-04-24T04:36:21.925Z,2.33
2023-04-24T04:38:49.490Z,2.15
2023-04-24T04:41:17.903Z,2.88
2023-04-24T04:43:44.671Z,3.53
2023-04-24T04:46:12.291Z,2.58
2023-04-24T04:48:39.129Z,2.97
2023-04-24T04:51:06.030Z,2.63
2023-04-24T04:53:32.713Z,2.50
2023-04-24T04:55:59.360Z,2.47
2023-04-24T04:58:26.375Z,5.65
2023-04-24T05:00:53.347Z,2.78
2023-04-24T05:03:21.682Z,2.78
2023-04-24T05:05:48.724Z,2.30
2023-04-24T05:10:44.951Z,2.33
2023-04-24T05:13:14.001Z,2.70
2023-04-24T05:15:40.805Z,2.80
2023-04-24T05:18:07.698Z,3.45
2023-04-24T05:20:34.531Z,2.40
2023-04-24T05:23:01.527Z,1.92
2023-04-24T05:25:28.182Z,2.33
2023-04-24T05:27:55.131Z,2.20
2023-04-24T05:30:21.936Z,1.77
2023-04-24T05:32:48.844Z,2.25
2023-04-24T05:35:15.746Z,2.45
2023-04-24T05:37:42.420Z,3.65
2023-04-24T05:40:10.023Z,2.35
2023-04-24T05:42:36.710Z,1.83
2023-04-24T05:45:04.161Z,1.73
2023-04-24T05:47:30.916Z,3.28
2023-04-24T05:49:57.831Z,2.00
2023-04-24T05:52:24.508Z,2.58
2023-04-24T05:54:51.508Z,1.60
2023-04-24T05:57:18.158Z,1.77
2023-04-24T05:59:44.996Z,1.50
2023-04-24T06:02:13.872Z,2.78
2023-04-24T06:04:41.204Z,2.50
2023-04-24T06:07:08.309Z,2.25
2023-04-24T06:09:35.113Z,2.90
2023-04-24T06:12:01.841Z,3.22
2023-04-24T06:14:28.474Z,3.33
2023-04-24T06:16:55.185Z,2.50
2023-04-24T06:19:21.892Z,3.72
2023-04-24T06:21:48.613Z,3.45
2023-04-24T06:24:17.221Z,2.55
2023-04-24T06:26:44.029Z,1.90
2023-04-24T06:29:10.921Z,1.92
2023-04-24T06:31:38.355Z,1.88
2023-04-24T06:34:05.274Z,1.50
2023-04-24T06:36:32.350Z,1.38
2023-04-24T06:38:59.078Z,1.40
2023-04-24T06:41:26.121Z,1.20
2023-04-24T06:43:52.853Z,1.42
2023-04-24T06:46:19.643Z,1.00
2023-04-24T06:48:46.372Z,1.13
2023-04-24T06:51:14.219Z,1.25
2023-04-24T06:53:40.988Z,1.08
2023-04-24T06:56:07.995Z,1.52
2023-04-24T06:58:34.785Z,1.27
2023-04-24T07:01:01.542Z,1.50
2023-04-24T07:03:28.951Z,2.28
2023-04-24T07:05:56.097Z,1.88
2023-04-24T07:08:23.147Z,1.67
2023-04-24T07:10:51.765Z,2.88
2023-04-24T07:13:18.608Z,2.20
2023-04-24T07:15:45.549Z,1.58
2023-04-24T07:18:13.589Z,1.88
2023-04-24T07:20:41.904Z,2.50
2023-04-24T07:23:08.658Z,1.70
2023-04-24T07:25:35.442Z,2.30
2023-04-24T07:28:03.067Z,2.17
2023-04-24T07:30:30.227Z,2.00
2023-04-24T07:32:57.407Z,1.98
2023-04-24T07:35:26.418Z,1.73
2023-04-24T07:37:54.659Z,1.55
2023-04-24T07:40:21.614Z,1.88
2023-04-24T07:42:49.538Z,1.45
2023-04-24T07:45:16.436Z,2.13
2023-04-24T07:47:45.014Z,2.35
2023-04-24T07:50:12.057Z,1.90
2023-04-24T07:52:38.740Z,2.55
2023-04-24T07:55:06.758Z,2.42
2023-04-24T07:57:33.435Z,2.33
2023-04-24T08:00:00.141Z,1.95
2023-04-24T08:02:28.230Z,1.90
2023-04-24T08:04:55.820Z,2.50
2023-04-24T08:07:23.007Z,2.88
2023-04-24T08:09:50.982Z,2.15
2023-04-24T08:12:17.734Z,2.20
2023-04-24T08:14:44.588Z,2.50
2023-04-24T08:17:11.565Z,2.70
2023-04-24T08:19:38.250Z,2.15
2023-04-24T08:22:05.287Z,1.98
2023-04-24T08:24:32.027Z,2.00
2023-04-24T08:26:59.270Z,2.45
2023-04-24T08:29:26.236Z,2.13
2023-04-24T08:31:55.561Z,1.75
2023-04-24T08:34:22.974Z,1.67
2023-04-24T08:36:49.951Z,2.65
2023-04-24T08:39:17.002Z,3.20
2023-04-24T08:41:44.434Z,1.85
2023-04-24T08:44:12.115Z,2.88
2023-04-24T08:46:39.060Z,2.67
2023-04-24T08:49:06.174Z,1.77
2023-04-24T08:51:32.923Z,1.83
2023-04-24T08:53:59.561Z,1.25
2023-04-24T08:56:29.823Z,1.95
2023-04-24T08:58:56.808Z,2.05
2023-04-24T09:01:26.260Z,1.95
2023-04-24T09:03:56.014Z,2.28
2023-04-24T09:06:23.147Z,1.75
2023-04-24T09:08:53.324Z,1.88
2023-04-24T09:11:20.274Z,1.77
2023-04-24T09:13:47.629Z,1.20
2023-04-24T09:16:15.810Z,2.22
2023-04-24T09:18:42.699Z,1.55
2023-04-24T09:21:10.618Z,1.60
2023-04-24T09:23:37.343Z,1.60
2023-04-24T09:26:07.671Z,1.98
2023-04-24T09:28:38.601Z,1.52
2023-04-24T09:31:08.091Z,1.45
2023-04-24T09:33:35.769Z,1.60
2023-04-24T09:36:04.259Z,2.92
2023-04-24T09:38:38.058Z,1.70
2023-04-24T09:41:08.461Z,2.47
2023-04-24T09:43:36.468Z,2.25
2023-04-24T09:46:08.349Z,1.67
2023-04-24T09:48:37.229Z,2.08
2023-04-24T09:51:07.984Z,1.60
2023-04-24T09:53:34.739Z,1.55
2023-04-24T09:56:11.122Z,1.77
2023-04-24T09:58:38.617Z,1.70
2023-04-24T10:01:06.632Z,2.13
2023-04-24T10:03:34.863Z,1.67
2023-04-24T10:06:03.063Z,1.83
2023-04-24T10:08:38.340Z,2.03
2023-04-24T10:11:05.364Z,1.42
2023-04-24T10:13:33.849Z,1.80
2023-04-24T10:16:02.022Z,1.60
2023-04-24T10:18:29.242Z,1.50
2023-04-24T10:20:56.459Z,2.25
2023-04-24T10:23:24.290Z,2.53
2023-04-24T10:25:52.285Z,2.00
2023-04-24T10:28:20.262Z,2.05
2023-04-24T10:30:47.546Z,2.10
2023-04-24T10:33:15.236Z,1.73
2023-04-24T10:35:45.515Z,1.58
2023-04-24T10:38:18.028Z,1.50
2023-04-24T10:40:45.366Z,2.30
2023-04-24T10:43:17.380Z,3.08
2023-04-24T10:46:02.455Z,2.15
2023-04-24T10:48:29.177Z,1.67
2023-04-24T10:50:55.972Z,2.03
2023-04-24T10:53:24.968Z,1.50
2023-04-24T10:55:53.395Z,2.00
2023-04-24T10:58:24.588Z,2.03
2023-04-24T11:01:01.156Z,1.17
2023-04-24T11:03:30.338Z,2.72
2023-04-24T11:06:03.553Z,1.88
2023-04-24T11:08:43.901Z,3.00
2023-04-24T11:11:14.557Z,2.33
2023-04-24T11:13:59.747Z,2.17
2023-04-24T11:16:35.410Z,1.67
2023-04-24T11:19:09.503Z,3.05
2023-04-24T11:21:50.318Z,1.10
2023-04-24T11:24:41.072Z,1.85
2023-04-24T11:27:15.124Z,1.73
2023-04-24T11:29:46.349Z,1.83
2023-04-24T11:32:20.608Z,2.33
2023-04-24T11:34:51.977Z,1.52
2023-04-24T11:37:18.985Z,1.97
2023-04-24T11:39:45.822Z,1.92
2023-04-24T11:42:16.460Z,2.05
2023-04-24T11:44:44.433Z,1.65
2023-04-24T11:47:11.103Z,2.08
2023-04-24T11:49:38.696Z,1.92
2023-04-24T11:52:06.165Z,1.63
2023-04-24T11:54:33.119Z,2.35
2023-04-24T11:56:59.921Z,2.00
2023-04-24T11:59:26.943Z,1.67
2023-04-24T12:01:53.601Z,2.40
2023-04-24T12:04:20.655Z,2.20
2023-04-24T12:07:06.310Z,1.38
2023-04-24T12:09:47.921Z,1.70
2023-04-24T12:12:18.746Z,1.33
2023-04-24T12:14:50.821Z,1.50
2023-04-24T12:17:18.026Z,2.22
2023-04-24T12:19:49.211Z,1.70
2023-04-24T12:22:16.404Z,1.50
2023-04-24T12:25:03.744Z,2.85
2023-04-24T12:27:34.233Z,2.50
2023-04-24T12:30:03.859Z,1.80
2023-04-24T12:32:30.731Z,1.30
2023-04-24T12:34:59.051Z,1.88
2023-04-24T12:37:27.238Z,1.63
2023-04-24T12:40:01.591Z,1.55
2023-04-24T12:42:30.246Z,1.70
2023-04-24T12:44:59.918Z,1.40
2023-04-24T12:47:27.224Z,1.00
2023-04-24T12:49:54.207Z,1.80
2023-04-24T12:52:24.773Z,1.70
2023-04-24T12:54:54.699Z,1.25
2023-04-24T12:57:21.528Z,1.33
2023-04-24T12:59:48.160Z,1.73
2023-04-24T13:02:15.515Z,1.10
2023-04-24T13:04:42.204Z,1.42
2023-04-24T13:07:08.925Z,1.60
2023-04-24T13:09:36.003Z,1.73
2023-04-24T13:12:03.354Z,1.65
2023-04-24T13:14:30.120Z,1.80
2023-04-24T13:16:56.867Z,1.20
2023-04-24T13:19:27.941Z,1.60
2023-04-24T13:21:58.513Z,3.97
2023-04-24T13:24:26.179Z,1.73
2023-04-24T13:26:53.854Z,1.35
2023-04-24T13:29:20.874Z,1.83
2023-04-24T13:31:57.645Z,2.00
2023-04-24T13:34:25.928Z,1.33
2023-04-24T13:36:54.485Z,1.73
2023-04-24T13:39:21.873Z,1.90
2023-04-24T13:41:49.303Z,1.70
2023-04-24T13:44:17.602Z,1.45
2023-04-24T13:46:46.156Z,1.92
2023-04-24T13:49:17.151Z,1.20
2023-04-24T13:51:44.845Z,1.33
2023-04-24T13:54:11.572Z,1.35
2023-04-24T13:56:38.238Z,1.38
2023-04-24T13:59:04.870Z,1.77
2023-04-24T14:01:31.953Z,1.25
2023-04-24T14:03:58.716Z,2.20
2023-04-24T14:06:25.492Z,1.45
2023-04-24T14:08:52.524Z,1.80
2023-04-24T14:11:20.497Z,1.98
2023-04-24T14:13:47.552Z,2.15
2023-04-24T14:16:15.152Z,1.40
2023-04-24T14:18:42.058Z,1.30
2023-04-24T14:21:08.881Z,1.73
2023-04-24T14:23:35.609Z,1.48
2023-04-24T14:26:02.308Z,1.40
2023-04-24T14:28:29.118Z,1.80
2023-04-24T14:30:55.970Z,1.20
2023-04-24T14:33:22.835Z,1.33
2023-04-24T14:35:50.307Z,1.92
2023-04-24T14:38:16.983Z,1.88
2023-04-24T14:43:13.315Z,1.27
2023-04-24T14:45:41.945Z,1.40
2023-04-24T14:48:09.685Z,1.40
2023-04-24T14:50:37.046Z,1.10
2023-04-24T14:53:03.956Z,1.40
2023-04-24T14:55:30.751Z,1.60
2023-04-24T14:57:57.449Z,1.25
2023-04-24T15:00:27.016Z,1.60
2023-04-24T15:02:53.911Z,1.67
2023-04-24T15:05:21.014Z,2.10
2023-04-24T15:07:47.860Z,1.33
2023-04-24T15:10:14.588Z,1.35
2023-04-24T15:12:41.386Z,1.38
2023-04-24T15:15:09.497Z,1.20
2023-04-24T15:17:36.372Z,0.82
2023-04-24T15:20:04.872Z,1.25
2023-04-24T15:22:31.567Z,1.05
2023-04-24T15:24:58.409Z,1.60
2023-04-24T15:27:25.489Z,1.67
2023-04-24T15:29:52.273Z,1.38
2023-04-24T15:32:18.930Z,1.20
2023-04-24T15:34:45.968Z,1.25
2023-04-24T15:37:13.014Z,1.33
2023-04-24T15:39:40.190Z,0.80
2023-04-24T15:42:06.818Z,1.35
2023-04-24T15:44:33.471Z,1.50
2023-04-24T15:47:01.660Z,1.92
2023-04-24T15:49:28.333Z,1.65
2023-04-24T15:51:55.007Z,2.15
2023-04-24T15:54:21.747Z,1.30
2023-04-24T15:56:50.920Z,1.23
2023-04-24T15:59:18.647Z,1.10
2023-04-24T16:01:45.373Z,0.98
2023-04-24T16:04:12.381Z,0.95
2023-04-24T16:06:39.193Z,1.30
2023-04-24T16:09:06.242Z,0.98
2023-04-24T16:11:36.505Z,1.08
2023-04-24T16:14:03.185Z,1.23
2023-04-24T16:16:30.010Z,1.00
2023-04-24T16:18:56.829Z,1.25
2023-04-24T16:21:23.772Z,1.10
2023-04-24T16:23:50.746Z,1.00
2023-04-24T16:26:17.414Z,1.67
2023-04-24T16:28:44.092Z,0.98
2023-04-24T16:31:10.828Z,1.00
2023-04-24T16:33:37.751Z,2.10
2023-04-24T16:36:06.690Z,1.02
2023-04-24T16:38:34.245Z,1.00
2023-04-24T16:41:01.041Z,1.15
2023-04-24T16:43:27.728Z,0.80
2023-04-24T16:45:54.610Z,1.25
2023-04-24T16:48:21.299Z,0.98
2023-04-24T16:50:47.958Z,1.45
2023-04-24T16:53:14.599Z,1.23
2023-04-24T16:55:41.301Z,1.00
2023-04-24T16:58:07.930Z,1.17
2023-04-24T17:00:35.450Z,1.00
2023-04-24T17:03:02.301Z,1.20
2023-04-24T17:05:29.055Z,1.30
2023-04-24T17:07:55.744Z,0.70
2023-04-24T17:10:22.945Z,0.90
2023-04-24T17:12:50.452Z,0.93
2023-04-24T17:15:17.497Z,1.13
2023-04-24T17:17:46.181Z,1.40
2023-04-24T17:20:22.305Z,2.97
2023-04-24T17:22:50.333Z,1.20
2023-04-24T17:25:19.142Z,1.52
2023-04-24T17:27:45.849Z,1.38
2023-04-24T17:30:13.164Z,1.10
2023-04-24T17:32:40.238Z,1.17
2023-04-24T17:35:07.626Z,1.13
2023-04-24T17:37:34.428Z,1.05
2023-04-24T17:40:01.164Z,1.10
2023-04-24T17:42:27.800Z,0.95
2023-04-24T17:44:54.444Z,1.00
2023-04-24T17:47:22.437Z,1.00
2023-04-24T17:49:49.188Z,0.68
2023-04-24T17:52:17.698Z,1.73
2023-04-24T17:54:44.610Z,1.20
2023-04-24T17:57:11.410Z,0.80
2023-04-24T17:59:38.106Z,1.30
2023-04-24T18:02:04.767Z,0.90
2023-04-24T18:04:31.561Z,1.10
2023-04-24T18:06:58.422Z,0.98
2023-04-24T18:09:25.024Z,0.93
2023-04-24T18:11:51.667Z,1.45
2023-04-24T18:14:18.433Z,1.67
2023-04-24T18:16:45.433Z,1.10
2023-04-24T18:19:12.073Z,1.95
2023-04-24T18:21:38.722Z,1.25
2023-04-24T18:24:05.595Z,1.45
2023-04-24T18:26:32.182Z,1.20
2023-04-24T18:28:58.882Z,1.67
2023-04-24T18:31:25.713Z,1.38
2023-04-24T18:33:54.196Z,1.70
2023-04-24T18:36:21.269Z,1.60
2023-04-24T18:38:48.239Z,2.25
2023-04-24T18:41:17.418Z,2.13
2023-04-24T18:43:44.628Z,4.25
2023-04-24T18:46:12.497Z,1.90
2023-04-24T18:48:39.162Z,1.20
2023-04-24T18:51:05.919Z,1.95
2023-04-24T18:53:32.499Z,1.88
2023-04-24T18:55:59.212Z,1.73
2023-04-24T18:58:25.983Z,1.63
2023-04-24T19:00:52.914Z,1.80
2023-04-24T19:03:20.371Z,1.10
2023-04-24T19:05:47.098Z,1.63
2023-04-24T19:08:13.743Z,1.77
2023-04-24T19:10:43.158Z,1.85
2023-04-24T19:13:09.828Z,1.50
2023-04-24T19:15:36.616Z,1.48
2023-04-24T19:18:03.624Z,1.73
2023-04-24T19:20:30.312Z,1.33
2023-04-24T19:22:57.043Z,1.52
2023-04-24T19:25:23.719Z,1.27
2023-04-24T19:27:50.492Z,1.65
2023-04-24T19:30:17.138Z,1.45
2023-04-24T19:32:43.811Z,2.03
2023-04-24T19:35:10.541Z,1.55
2023-04-24T19:37:37.229Z,1.90
2023-04-24T19:40:04.451Z,2.42
2023-04-24T19:42:42.619Z,1.95
2023-04-24T19:45:14.337Z,2.70
2023-04-24T19:47:41.082Z,1.98
2023-04-24T19:50:08.264Z,2.67
2023-04-24T19:52:34.904Z,1.95
2023-04-24T19:55:01.548Z,2.40
2023-04-24T19:57:29.645Z,2.30
2023-04-24T19:59:56.360Z,2.20
2023-04-24T20:02:23.354Z,2.20
2023-04-24T20:04:50.379Z,1.80
2023-04-24T20:07:17.424Z,1.40
2023-04-24T20:09:44.101Z,1.60
2023-04-24T20:12:11.150Z,1.77
2023-04-24T20:14:37.799Z,1.80
2023-04-24T20:17:04.415Z,1.77
2023-04-24T20:19:31.290Z,1.88
2023-04-24T20:21:58.046Z,1.73
2023-04-24T20:24:24.816Z,1.88
2023-04-24T20:26:51.509Z,1.90
2023-04-24T20:29:18.220Z,1.98
2023-04-24T20:31:44.908Z,2.28
2023-04-24T20:34:11.996Z,3.03
2023-04-24T20:36:38.890Z,1.60
2023-04-24T20:39:06.851Z,1.52
2023-04-24T20:41:34.187Z,1.90
2023-04-24T20:44:01.224Z,1.38
2023-04-24T20:46:28.197Z,1.50
2023-04-24T20:48:54.879Z,1.50
2023-04-24T20:51:21.648Z,2.58
2023-04-24T20:53:49.707Z,1.88
2023-04-24T20:56:17.337Z,1.75
2023-04-24T20:58:49.984Z,2.28
2023-04-24T21:01:16.973Z,2.15
2023-04-24T21:03:43.811Z,2.03
2023-04-24T21:06:11.212Z,2.35
2023-04-24T21:08:38.069Z,3.15
2023-04-24T21:11:04.911Z,3.13
2023-04-24T21:13:31.563Z,3.50
2023-04-24T21:15:58.455Z,3.45
2023-04-24T21:18:26.225Z,3.58
2023-04-24T21:20:53.555Z,3.72
2023-04-24T21:23:20.385Z,3.50
2023-04-24T21:25:47.585Z,3.30
2023-04-24T21:28:14.276Z,3.92
2023-04-24T21:30:40.990Z,4.00
2023-04-24T21:33:07.844Z,4.57
2023-04-24T21:35:35.271Z,3.70
2023-04-24T21:38:01.985Z,4.22
2023-04-24T21:40:29.188Z,4.82
2023-04-24T21:42:55.886Z,3.70
2023-04-24T21:45:22.696Z,3.90
2023-04-24T21:47:49.426Z,3.90
2023-04-24T21:50:16.272Z,4.10
2023-04-24T21:52:42.941Z,4.32
2023-04-24T21:55:09.739Z,3.75
2023-04-24T21:57:36.818Z,4.40
2023-04-24T22:00:06.544Z,4.03
2023-04-24T22:02:34.050Z,4.38
2023-04-24T22:05:03.236Z,3.80
2023-04-24T22:07:30.663Z,2.85
2023-04-24T22:09:57.277Z,2.97
2023-04-24T22:12:23.927Z,1.83
2023-04-24T22:14:50.858Z,2.78
2023-04-24T22:17:17.541Z,2.70
2023-04-24T22:19:44.119Z,2.47
2023-04-24T22:22:10.805Z,2.60
2023-04-24T22:24:37.520Z,3.13
2023-04-24T22:27:04.284Z,3.80
2023-04-24T22:29:30.982Z,3.55
2023-04-24T22:31:57.845Z,3.17
2023-04-24T22:34:24.524Z,2.97
2023-04-24T22:36:51.295Z,2.78
2023-04-24T22:39:17.984Z,3.38
2023-04-24T22:41:44.632Z,2.75
2023-04-24T22:44:11.605Z,2.63
2023-04-24T22:46:38.417Z,3.40
2023-04-24T22:49:05.227Z,2.97
2023-04-24T22:51:35.264Z,3.00
2023-04-24T22:54:04.338Z,3.08
2023-04-24T22:56:31.814Z,3.22
2023-04-24T22:58:59.211Z,3.72
2023-04-24T23:01:29.305Z,2.90
2023-04-24T23:03:56.106Z,3.35
2023-04-24T23:06:22.803Z,3.30
2023-04-24T23:08:49.517Z,3.70
2023-04-24T23:11:16.131Z,3.35
2023-04-24T23:13:42.783Z,3.78
2023-04-24T23:16:09.422Z,6.43
2023-04-24T23:18:36.291Z,3.10
2023-04-24T23:21:03.561Z,3.75
2023-04-24T23:23:30.252Z,3.47
2023-04-24T23:25:57.045Z,3.95
2023-04-24T23:28:23.688Z,3.35
2023-04-24T23:30:50.393Z,3.55
2023-04-24T23:33:17.023Z,2.78
2023-04-24T23:35:43.725Z,3.13
2023-04-24T23:38:11.107Z,3.03
2023-04-24T23:40:37.828Z,2.08
2023-04-24T23:43:08.132Z,2.10
2023-04-24T23:45:35.779Z,1.77
2023-04-24T23:48:03.414Z,1.50
2023-04-24T23:50:30.197Z,1.50
2023-04-24T23:52:56.964Z,1.00
2023-04-24T23:55:23.675Z,1.17
2023-04-24T23:57:50.439Z,1.00
